sensor_id;sensor_type;location;lat;lon;timestamp;P1;durP1;ratioP1;P2;durP2;ratioP2
64543;SDS011;50936;51.660;5.616;2023-03-20T00:02:03;17.27;;;6.03;;
64543;SDS011;50936;51.660;5.616;2023-03-20T00:04:32;24.67;;;9.30;;
64543;SDS011;50936;51.660;5.616;2023-03-20T00:06:59;27.90;;;9.40;;
64543;SDS011;50936;51.660;5.616;2023-03-20T00:09:26;21.63;;;7.93;;
64543;SDS011;50936;51.660;5.616;2023-03-20T00:11:53;35.83;;;12.07;;
64543;SDS011;50936;51.660;5.616;2023-03-20T00:14:21;20.58;;;9.80;;
64543;SDS011;50936;51.660;5.616;2023-03-20T00:16:50;22.15;;;8.68;;
64543;SDS011;50936;51.660;5.616;2023-03-20T00:19:22;21.98;;;7.78;;
64543;SDS011;50936;51.660;5.616;2023-03-20T00:21:52;20.25;;;8.18;;
64543;SDS011;50936;51.660;5.616;2023-03-20T00:24:21;21.83;;;7.72;;
64543;SDS011;50936;51.660;5.616;2023-03-20T00:26:49;22.13;;;8.13;;
64543;SDS011;50936;51.660;5.616;2023-03-20T00:31:56;15.23;;;5.88;;
64543;SDS011;50936;51.660;5.616;2023-03-20T00:34:25;14.85;;;5.88;;
64543;SDS011;50936;51.660;5.616;2023-03-20T00:36:57;11.95;;;5.30;;
64543;SDS011;50936;51.660;5.616;2023-03-20T00:39:28;17.25;;;6.18;;
64543;SDS011;50936;51.660;5.616;2023-03-20T00:41:55;20.10;;;6.32;;
64543;SDS011;50936;51.660;5.616;2023-03-20T00:47:23;18.98;;;5.72;;
64543;SDS011;50936;51.660;5.616;2023-03-20T00:49:51;15.73;;;5.03;;
64543;SDS011;50936;51.660;5.616;2023-03-20T00:52:20;26.65;;;6.72;;
64543;SDS011;50936;51.660;5.616;2023-03-20T00:54:49;15.73;;;5.07;;
64543;SDS011;50936;51.660;5.616;2023-03-20T00:57:26;18.98;;;6.03;;
64543;SDS011;50936;51.660;5.616;2023-03-20T01:02:38;17.00;;;5.95;;
64543;SDS011;50936;51.660;5.616;2023-03-20T01:05:06;12.15;;;5.05;;
64543;SDS011;50936;51.660;5.616;2023-03-20T01:07:33;13.63;;;5.32;;
64543;SDS011;50936;51.660;5.616;2023-03-20T01:10:01;13.55;;;4.80;;
64543;SDS011;50936;51.660;5.616;2023-03-20T01:12:28;13.90;;;6.00;;
64543;SDS011;50936;51.660;5.616;2023-03-20T01:14:56;21.23;;;7.68;;
64543;SDS011;50936;51.660;5.616;2023-03-20T01:17:25;13.40;;;6.22;;
64543;SDS011;50936;51.660;5.616;2023-03-20T01:19:54;13.95;;;6.50;;
64543;SDS011;50936;51.660;5.616;2023-03-20T01:22:21;16.90;;;7.60;;
64543;SDS011;50936;51.660;5.616;2023-03-20T01:24:48;10.43;;;4.57;;
64543;SDS011;50936;51.660;5.616;2023-03-20T01:27:16;12.88;;;4.95;;
64543;SDS011;50936;51.660;5.616;2023-03-20T01:29:45;14.85;;;6.55;;
64543;SDS011;50936;51.660;5.616;2023-03-20T01:32:14;14.15;;;5.55;;
64543;SDS011;50936;51.660;5.616;2023-03-20T01:34:47;17.77;;;6.07;;
64543;SDS011;50936;51.660;5.616;2023-03-20T01:37:21;16.40;;;5.78;;
64543;SDS011;50936;51.660;5.616;2023-03-20T01:39:54;20.88;;;6.45;;
64543;SDS011;50936;51.660;5.616;2023-03-20T01:42:23;17.70;;;7.15;;
64543;SDS011;50936;51.660;5.616;2023-03-20T01:44:50;15.52;;;6.28;;
64543;SDS011;50936;51.660;5.616;2023-03-20T01:47:22;16.35;;;6.10;;
64543;SDS011;50936;51.660;5.616;2023-03-20T01:53:05;20.77;;;7.05;;
64543;SDS011;50936;51.660;5.616;2023-03-20T01:58:25;19.83;;;6.18;;
64543;SDS011;50936;51.660;5.616;2023-03-20T02:00:58;13.38;;;5.68;;
64543;SDS011;50936;51.660;5.616;2023-03-20T02:03:47;18.73;;;7.53;;
64543;SDS011;50936;51.660;5.616;2023-03-20T02:06:51;10.90;;;4.85;;
64543;SDS011;50936;51.660;5.616;2023-03-20T02:09:35;21.80;;;6.70;;
64543;SDS011;50936;51.660;5.616;2023-03-20T02:12:07;11.68;;;4.57;;
64543;SDS011;50936;51.660;5.616;2023-03-20T02:14:35;20.60;;;7.00;;
64543;SDS011;50936;51.660;5.616;2023-03-20T02:17:14;14.63;;;5.63;;
64543;SDS011;50936;51.660;5.616;2023-03-20T02:19:54;15.43;;;6.35;;
64543;SDS011;50936;51.660;5.616;2023-03-20T02:28:51;22.23;;;9.20;;
64543;SDS011;50936;51.660;5.616;2023-03-20T02:47:13;21.15;;;7.00;;
64543;SDS011;50936;51.660;5.616;2023-03-20T02:59:31;23.63;;;9.57;;
64543;SDS011;50936;51.660;5.616;2023-03-20T03:02:11;23.35;;;8.80;;
64543;SDS011;50936;51.660;5.616;2023-03-20T03:04:50;22.20;;;10.45;;
64543;SDS011;50936;51.660;5.616;2023-03-20T03:07:24;21.60;;;9.85;;
64543;SDS011;50936;51.660;5.616;2023-03-20T03:10:02;26.08;;;11.50;;
64543;SDS011;50936;51.660;5.616;2023-03-20T03:15:19;26.73;;;10.23;;
64543;SDS011;50936;51.660;5.616;2023-03-20T03:17:56;24.58;;;9.38;;
64543;SDS011;50936;51.660;5.616;2023-03-20T03:20:27;28.58;;;10.60;;
64543;SDS011;50936;51.660;5.616;2023-03-20T03:22:58;21.75;;;8.68;;
64543;SDS011;50936;51.660;5.616;2023-03-20T03:25:27;32.85;;;11.18;;
64543;SDS011;50936;51.660;5.616;2023-03-20T03:28:02;31.25;;;10.60;;
64543;SDS011;50936;51.660;5.616;2023-03-20T03:30:48;24.60;;;10.00;;
64543;SDS011;50936;51.660;5.616;2023-03-20T03:33:27;29.38;;;10.20;;
64543;SDS011;50936;51.660;5.616;2023-03-20T03:36:22;15.63;;;7.38;;
64543;SDS011;50936;51.660;5.616;2023-03-20T03:42:29;29.50;;;10.52;;
64543;SDS011;50936;51.660;5.616;2023-03-20T03:45:28;23.08;;;7.72;;
64543;SDS011;50936;51.660;5.616;2023-03-20T03:48:31;26.48;;;9.25;;
64543;SDS011;50936;51.660;5.616;2023-03-20T03:51:15;25.30;;;8.23;;
64543;SDS011;50936;51.660;5.616;2023-03-20T03:54:05;21.88;;;9.20;;
64543;SDS011;50936;51.660;5.616;2023-03-20T03:56:46;29.90;;;10.60;;
64543;SDS011;50936;51.660;5.616;2023-03-20T03:59:22;21.02;;;7.82;;
64543;SDS011;50936;51.660;5.616;2023-03-20T04:01:58;21.27;;;8.13;;
64543;SDS011;50936;51.660;5.616;2023-03-20T04:04:29;21.20;;;8.02;;
64543;SDS011;50936;51.660;5.616;2023-03-20T04:07:04;23.75;;;9.70;;
64543;SDS011;50936;51.660;5.616;2023-03-20T04:09:31;19.27;;;8.82;;
64543;SDS011;50936;51.660;5.616;2023-03-20T04:11:58;26.08;;;9.63;;
64543;SDS011;50936;51.660;5.616;2023-03-20T04:14:26;27.90;;;9.73;;
64543;SDS011;50936;51.660;5.616;2023-03-20T04:16:53;21.65;;;7.68;;
64543;SDS011;50936;51.660;5.616;2023-03-20T04:19:20;26.13;;;9.32;;
64543;SDS011;50936;51.660;5.616;2023-03-20T04:21:47;19.40;;;8.68;;
64543;SDS011;50936;51.660;5.616;2023-03-20T04:24:14;27.40;;;9.63;;
64543;SDS011;50936;51.660;5.616;2023-03-20T04:26:41;27.83;;;9.70;;
64543;SDS011;50936;51.660;5.616;2023-03-20T04:29:08;24.70;;;9.25;;
64543;SDS011;50936;51.660;5.616;2023-03-20T04:31:49;18.73;;;7.40;;
64543;SDS011;50936;51.660;5.616;2023-03-20T04:37:13;18.30;;;7.22;;
64543;SDS011;50936;51.660;5.616;2023-03-20T04:39:47;24.20;;;7.82;;
64543;SDS011;50936;51.660;5.616;2023-03-20T04:42:14;21.65;;;8.45;;
64543;SDS011;50936;51.660;5.616;2023-03-20T04:44:41;18.23;;;6.75;;
64543;SDS011;50936;51.660;5.616;2023-03-20T04:47:08;24.75;;;9.00;;
64543;SDS011;50936;51.660;5.616;2023-03-20T04:49:39;19.73;;;8.15;;
64543;SDS011;50936;51.660;5.616;2023-03-20T04:52:06;20.95;;;9.02;;
64543;SDS011;50936;51.660;5.616;2023-03-20T04:54:37;21.35;;;8.98;;
64543;SDS011;50936;51.660;5.616;2023-03-20T04:57:03;22.27;;;8.32;;
64543;SDS011;50936;51.660;5.616;2023-03-20T04:59:31;21.25;;;7.90;;
64543;SDS011;50936;51.660;5.616;2023-03-20T05:01:58;17.50;;;7.75;;
64543;SDS011;50936;51.660;5.616;2023-03-20T05:04:26;24.60;;;9.55;;
64543;SDS011;50936;51.660;5.616;2023-03-20T05:06:53;22.92;;;9.13;;
64543;SDS011;50936;51.660;5.616;2023-03-20T05:09:23;24.88;;;9.27;;
64543;SDS011;50936;51.660;5.616;2023-03-20T05:11:51;25.33;;;8.95;;
64543;SDS011;50936;51.660;5.616;2023-03-20T05:14:48;20.08;;;8.10;;
64543;SDS011;50936;51.660;5.616;2023-03-20T05:17:38;20.00;;;8.15;;
64543;SDS011;50936;51.660;5.616;2023-03-20T05:20:24;12.93;;;5.60;;
64543;SDS011;50936;51.660;5.616;2023-03-20T05:23:01;21.25;;;8.40;;
64543;SDS011;50936;51.660;5.616;2023-03-20T05:25:46;18.98;;;8.18;;
64543;SDS011;50936;51.660;5.616;2023-03-20T05:28:42;21.38;;;8.88;;
64543;SDS011;50936;51.660;5.616;2023-03-20T05:34:06;21.98;;;8.48;;
64543;SDS011;50936;51.660;5.616;2023-03-20T05:36:45;23.27;;;10.30;;
64543;SDS011;50936;51.660;5.616;2023-03-20T05:39:25;26.13;;;9.00;;
64543;SDS011;50936;51.660;5.616;2023-03-20T05:42:08;20.55;;;9.23;;
64543;SDS011;50936;51.660;5.616;2023-03-20T05:44:58;19.00;;;7.32;;
64543;SDS011;50936;51.660;5.616;2023-03-20T05:47:43;28.33;;;9.10;;
64543;SDS011;50936;51.660;5.616;2023-03-20T05:50:13;16.23;;;7.05;;
64543;SDS011;50936;51.660;5.616;2023-03-20T05:52:58;18.15;;;7.20;;
64543;SDS011;50936;51.660;5.616;2023-03-20T05:55:43;18.88;;;9.10;;
64543;SDS011;50936;51.660;5.616;2023-03-20T05:58:28;23.48;;;8.68;;
64543;SDS011;50936;51.660;5.616;2023-03-20T06:01:13;21.48;;;6.97;;
64543;SDS011;50936;51.660;5.616;2023-03-20T06:04:12;22.25;;;8.45;;
64543;SDS011;50936;51.660;5.616;2023-03-20T06:07:02;22.20;;;8.13;;
64543;SDS011;50936;51.660;5.616;2023-03-20T06:09:30;24.35;;;8.60;;
64543;SDS011;50936;51.660;5.616;2023-03-20T06:11:58;16.48;;;6.68;;
64543;SDS011;50936;51.660;5.616;2023-03-20T06:14:25;19.75;;;8.43;;
64543;SDS011;50936;51.660;5.616;2023-03-20T06:19:26;19.70;;;6.25;;
64543;SDS011;50936;51.660;5.616;2023-03-20T06:21:54;18.77;;;7.68;;
64543;SDS011;50936;51.660;5.616;2023-03-20T06:24:21;15.65;;;6.75;;
64543;SDS011;50936;51.660;5.616;2023-03-20T06:26:49;20.42;;;7.10;;
64543;SDS011;50936;51.660;5.616;2023-03-20T06:29:17;17.80;;;8.48;;
64543;SDS011;50936;51.660;5.616;2023-03-20T06:31:44;16.08;;;5.85;;
64543;SDS011;50936;51.660;5.616;2023-03-20T06:34:21;29.02;;;8.23;;
64543;SDS011;50936;51.660;5.616;2023-03-20T06:36:49;11.20;;;6.35;;
64543;SDS011;50936;51.660;5.616;2023-03-20T06:39:19;17.48;;;6.60;;
64543;SDS011;50936;51.660;5.616;2023-03-20T06:41:47;14.90;;;7.03;;
64543;SDS011;50936;51.660;5.616;2023-03-20T06:44:15;16.00;;;5.82;;
64543;SDS011;50936;51.660;5.616;2023-03-20T06:47:03;20.52;;;7.53;;
64543;SDS011;50936;51.660;5.616;2023-03-20T06:49:31;18.80;;;5.45;;
64543;SDS011;50936;51.660;5.616;2023-03-20T06:51:57;16.92;;;5.85;;
64543;SDS011;50936;51.660;5.616;2023-03-20T06:54:25;16.33;;;6.82;;
64543;SDS011;50936;51.660;5.616;2023-03-20T06:56:53;15.50;;;5.63;;
64543;SDS011;50936;51.660;5.616;2023-03-20T06:59:20;15.15;;;6.75;;
64543;SDS011;50936;51.660;5.616;2023-03-20T07:01:50;10.02;;;4.22;;
64543;SDS011;50936;51.660;5.616;2023-03-20T07:04:18;26.83;;;7.00;;
64543;SDS011;50936;51.660;5.616;2023-03-20T07:06:48;14.90;;;6.30;;
64543;SDS011;50936;51.660;5.616;2023-03-20T07:09:16;21.45;;;6.75;;
64543;SDS011;50936;51.660;5.616;2023-03-20T07:11:43;16.27;;;5.38;;
64543;SDS011;50936;51.660;5.616;2023-03-20T07:14:11;15.18;;;5.93;;
64543;SDS011;50936;51.660;5.616;2023-03-20T07:16:45;16.20;;;6.10;;
64543;SDS011;50936;51.660;5.616;2023-03-20T07:19:12;16.27;;;6.82;;
64543;SDS011;50936;51.660;5.616;2023-03-20T07:21:42;13.70;;;6.25;;
64543;SDS011;50936;51.660;5.616;2023-03-20T07:24:12;19.20;;;6.03;;
64543;SDS011;50936;51.660;5.616;2023-03-20T07:26:39;11.43;;;4.90;;
64543;SDS011;50936;51.660;5.616;2023-03-20T07:29:07;16.38;;;6.68;;
64543;SDS011;50936;51.660;5.616;2023-03-20T07:31:35;21.23;;;6.30;;
64543;SDS011;50936;51.660;5.616;2023-03-20T07:34:22;17.95;;;7.13;;
64543;SDS011;50936;51.660;5.616;2023-03-20T07:36:50;19.52;;;7.18;;
64543;SDS011;50936;51.660;5.616;2023-03-20T07:39:19;16.60;;;5.85;;
64543;SDS011;50936;51.660;5.616;2023-03-20T07:42:10;15.70;;;6.65;;
64543;SDS011;50936;51.660;5.616;2023-03-20T07:44:49;17.10;;;6.43;;
64543;SDS011;50936;51.660;5.616;2023-03-20T07:47:16;16.17;;;6.07;;
64543;SDS011;50936;51.660;5.616;2023-03-20T07:49:43;14.00;;;4.85;;
64543;SDS011;50936;51.660;5.616;2023-03-20T07:52:12;21.15;;;6.28;;
64543;SDS011;50936;51.660;5.616;2023-03-20T07:54:39;14.60;;;5.18;;
64543;SDS011;50936;51.660;5.616;2023-03-20T07:57:05;17.27;;;6.82;;
64543;SDS011;50936;51.660;5.616;2023-03-20T07:59:33;12.73;;;5.60;;
64543;SDS011;50936;51.660;5.616;2023-03-20T08:01:59;18.95;;;7.50;;
64543;SDS011;50936;51.660;5.616;2023-03-20T08:04:26;18.25;;;6.03;;
64543;SDS011;50936;51.660;5.616;2023-03-20T08:06:54;20.20;;;6.43;;
64543;SDS011;50936;51.660;5.616;2023-03-20T08:09:21;19.75;;;7.30;;
64543;SDS011;50936;51.660;5.616;2023-03-20T08:11:48;14.77;;;6.82;;
64543;SDS011;50936;51.660;5.616;2023-03-20T08:14:15;16.00;;;7.72;;
64543;SDS011;50936;51.660;5.616;2023-03-20T08:16:41;12.77;;;5.47;;
64543;SDS011;50936;51.660;5.616;2023-03-20T08:19:08;17.38;;;5.53;;
64543;SDS011;50936;51.660;5.616;2023-03-20T08:21:35;16.30;;;6.47;;
64543;SDS011;50936;51.660;5.616;2023-03-20T08:24:02;12.68;;;5.50;;
64543;SDS011;50936;51.660;5.616;2023-03-20T08:26:29;12.27;;;5.03;;
64543;SDS011;50936;51.660;5.616;2023-03-20T08:28:57;18.65;;;5.63;;
64543;SDS011;50936;51.660;5.616;2023-03-20T08:31:25;11.73;;;5.63;;
64543;SDS011;50936;51.660;5.616;2023-03-20T08:33:51;16.65;;;4.80;;
64543;SDS011;50936;51.660;5.616;2023-03-20T08:36:18;17.75;;;5.40;;
64543;SDS011;50936;51.660;5.616;2023-03-20T08:38:46;14.90;;;5.75;;
64543;SDS011;50936;51.660;5.616;2023-03-20T08:41:16;17.25;;;5.78;;
64543;SDS011;50936;51.660;5.616;2023-03-20T08:43:43;14.05;;;5.10;;
64543;SDS011;50936;51.660;5.616;2023-03-20T08:46:11;16.17;;;6.07;;
64543;SDS011;50936;51.660;5.616;2023-03-20T08:48:38;16.65;;;6.93;;
64543;SDS011;50936;51.660;5.616;2023-03-20T08:51:05;14.05;;;4.72;;
64543;SDS011;50936;51.660;5.616;2023-03-20T08:53:33;17.35;;;6.10;;
64543;SDS011;50936;51.660;5.616;2023-03-20T08:56:02;10.88;;;4.97;;
64543;SDS011;50936;51.660;5.616;2023-03-20T08:58:29;17.40;;;5.35;;
64543;SDS011;50936;51.660;5.616;2023-03-20T09:00:56;19.58;;;6.85;;
64543;SDS011;50936;51.660;5.616;2023-03-20T09:03:28;15.73;;;5.65;;
64543;SDS011;50936;51.660;5.616;2023-03-20T09:05:55;15.27;;;7.10;;
64543;SDS011;50936;51.660;5.616;2023-03-20T09:08:22;20.33;;;7.15;;
64543;SDS011;50936;51.660;5.616;2023-03-20T09:10:48;13.82;;;6.03;;
64543;SDS011;50936;51.660;5.616;2023-03-20T09:13:18;11.57;;;5.88;;
64543;SDS011;50936;51.660;5.616;2023-03-20T09:15:53;14.57;;;5.60;;
64543;SDS011;50936;51.660;5.616;2023-03-20T09:18:22;20.05;;;6.40;;
64543;SDS011;50936;51.660;5.616;2023-03-20T09:20:50;14.65;;;5.13;;
64543;SDS011;50936;51.660;5.616;2023-03-20T09:23:17;17.40;;;5.35;;
64543;SDS011;50936;51.660;5.616;2023-03-20T09:25:45;14.50;;;4.85;;
64543;SDS011;50936;51.660;5.616;2023-03-20T09:28:12;13.68;;;5.43;;
64543;SDS011;50936;51.660;5.616;2023-03-20T09:30:39;16.85;;;6.35;;
64543;SDS011;50936;51.660;5.616;2023-03-20T09:33:08;13.65;;;5.15;;
64543;SDS011;50936;51.660;5.616;2023-03-20T09:35:36;13.80;;;6.18;;
64543;SDS011;50936;51.660;5.616;2023-03-20T09:38:03;18.17;;;5.53;;
64543;SDS011;50936;51.660;5.616;2023-03-20T09:40:51;13.55;;;4.60;;
64543;SDS011;50936;51.660;5.616;2023-03-20T09:46:18;14.38;;;5.53;;
64543;SDS011;50936;51.660;5.616;2023-03-20T09:51:58;14.05;;;5.28;;
64543;SDS011;50936;51.660;5.616;2023-03-20T09:54:34;15.02;;;6.38;;
64543;SDS011;50936;51.660;5.616;2023-03-20T09:57:20;14.18;;;5.07;;
64543;SDS011;50936;51.660;5.616;2023-03-20T09:59:54;15.55;;;6.75;;
64543;SDS011;50936;51.660;5.616;2023-03-20T10:02:49;11.07;;;5.35;;
64543;SDS011;50936;51.660;5.616;2023-03-20T10:05:26;13.40;;;5.20;;
64543;SDS011;50936;51.660;5.616;2023-03-20T10:08:00;14.75;;;4.93;;
64543;SDS011;50936;51.660;5.616;2023-03-20T10:10:36;14.18;;;6.43;;
64543;SDS011;50936;51.660;5.616;2023-03-20T10:16:14;16.30;;;5.55;;
64543;SDS011;50936;51.660;5.616;2023-03-20T10:24:56;13.65;;;4.95;;
64543;SDS011;50936;51.660;5.616;2023-03-20T10:27:45;11.57;;;5.22;;
64543;SDS011;50936;51.660;5.616;2023-03-20T10:33:11;12.00;;;5.03;;
64543;SDS011;50936;51.660;5.616;2023-03-20T10:36:03;15.13;;;4.60;;
64543;SDS011;50936;51.660;5.616;2023-03-20T10:38:52;13.50;;;4.97;;
64543;SDS011;50936;51.660;5.616;2023-03-20T10:41:28;11.05;;;3.97;;
64543;SDS011;50936;51.660;5.616;2023-03-20T10:44:03;9.68;;;4.32;;
64543;SDS011;50936;51.660;5.616;2023-03-20T10:46:39;12.05;;;4.95;;
64543;SDS011;50936;51.660;5.616;2023-03-20T10:49:17;11.20;;;4.45;;
64543;SDS011;50936;51.660;5.616;2023-03-20T10:51:57;12.38;;;4.72;;
64543;SDS011;50936;51.660;5.616;2023-03-20T10:54:31;18.13;;;5.45;;
64543;SDS011;50936;51.660;5.616;2023-03-20T10:57:05;14.48;;;4.45;;
64543;SDS011;50936;51.660;5.616;2023-03-20T10:59:44;13.50;;;5.65;;
64543;SDS011;50936;51.660;5.616;2023-03-20T11:02:19;12.35;;;4.13;;
64543;SDS011;50936;51.660;5.616;2023-03-20T11:04:51;14.18;;;4.57;;
64543;SDS011;50936;51.660;5.616;2023-03-20T11:07:30;11.10;;;4.00;;
64543;SDS011;50936;51.660;5.616;2023-03-20T11:12:31;18.00;;;6.05;;
64543;SDS011;50936;51.660;5.616;2023-03-20T11:18:01;18.42;;;6.25;;
64543;SDS011;50936;51.660;5.616;2023-03-20T11:20:54;13.65;;;5.20;;
64543;SDS011;50936;51.660;5.616;2023-03-20T11:23:24;10.98;;;4.63;;
64543;SDS011;50936;51.660;5.616;2023-03-20T11:25:58;22.80;;;5.75;;
64543;SDS011;50936;51.660;5.616;2023-03-20T11:28:31;10.20;;;4.97;;
64543;SDS011;50936;51.660;5.616;2023-03-20T11:33:35;12.63;;;5.47;;
64543;SDS011;50936;51.660;5.616;2023-03-20T11:36:25;14.95;;;5.28;;
64543;SDS011;50936;51.660;5.616;2023-03-20T11:41:40;10.98;;;4.60;;
64543;SDS011;50936;51.660;5.616;2023-03-20T11:44:24;18.77;;;6.20;;
64543;SDS011;50936;51.660;5.616;2023-03-20T11:49:52;13.45;;;5.15;;
64543;SDS011;50936;51.660;5.616;2023-03-20T11:52:32;15.55;;;4.90;;
64543;SDS011;50936;51.660;5.616;2023-03-20T11:55:06;9.25;;;5.00;;
64543;SDS011;50936;51.660;5.616;2023-03-20T11:58:02;13.82;;;4.97;;
64543;SDS011;50936;51.660;5.616;2023-03-20T12:00:36;12.27;;;4.93;;
64543;SDS011;50936;51.660;5.616;2023-03-20T12:03:32;17.75;;;6.18;;
64543;SDS011;50936;51.660;5.616;2023-03-20T12:06:12;13.98;;;4.70;;
64543;SDS011;50936;51.660;5.616;2023-03-20T12:09:09;18.17;;;5.20;;
64543;SDS011;50936;51.660;5.616;2023-03-20T12:15:01;14.20;;;4.28;;
64543;SDS011;50936;51.660;5.616;2023-03-20T12:26:57;11.65;;;4.32;;
64543;SDS011;50936;51.660;5.616;2023-03-20T12:32:27;14.75;;;4.22;;
64543;SDS011;50936;51.660;5.616;2023-03-20T12:35:17;17.27;;;7.15;;
64543;SDS011;50936;51.660;5.616;2023-03-20T12:37:55;11.27;;;4.68;;
64543;SDS011;50936;51.660;5.616;2023-03-20T12:40:31;15.68;;;5.28;;
64543;SDS011;50936;51.660;5.616;2023-03-20T12:43:21;14.32;;;5.88;;
64543;SDS011;50936;51.660;5.616;2023-03-20T12:57:30;15.43;;;5.32;;
64543;SDS011;50936;51.660;5.616;2023-03-20T13:00:40;14.95;;;5.60;;
64543;SDS011;50936;51.660;5.616;2023-03-20T13:06:53;15.73;;;6.20;;
64543;SDS011;50936;51.660;5.616;2023-03-20T13:14:59;9.82;;;4.57;;
64543;SDS011;50936;51.660;5.616;2023-03-20T13:20:35;16.58;;;5.30;;
64543;SDS011;50936;51.660;5.616;2023-03-20T13:23:18;17.20;;;5.45;;
64543;SDS011;50936;51.660;5.616;2023-03-20T13:25:51;15.68;;;6.82;;
64543;SDS011;50936;51.660;5.616;2023-03-20T13:34:09;18.83;;;6.65;;
64543;SDS011;50936;51.660;5.616;2023-03-20T13:36:48;15.20;;;6.07;;
64543;SDS011;50936;51.660;5.616;2023-03-20T13:40:03;14.98;;;6.35;;
64543;SDS011;50936;51.660;5.616;2023-03-20T13:46:21;14.10;;;5.57;;
64543;SDS011;50936;51.660;5.616;2023-03-20T13:48:52;12.95;;;5.65;;
64543;SDS011;50936;51.660;5.616;2023-03-20T13:54:34;17.25;;;5.93;;
64543;SDS011;50936;51.660;5.616;2023-03-20T14:00:38;15.15;;;5.45;;
64543;SDS011;50936;51.660;5.616;2023-03-20T14:03:43;13.63;;;5.82;;
64543;SDS011;50936;51.660;5.616;2023-03-20T14:06:58;13.82;;;5.18;;
64543;SDS011;50936;51.660;5.616;2023-03-20T14:09:29;16.35;;;5.18;;
64543;SDS011;50936;51.660;5.616;2023-03-20T14:12:01;15.55;;;6.50;;
64543;SDS011;50936;51.660;5.616;2023-03-20T14:14:56;13.85;;;5.35;;
64543;SDS011;50936;51.660;5.616;2023-03-20T14:17:30;10.88;;;3.88;;
64543;SDS011;50936;51.660;5.616;2023-03-20T14:20:07;16.15;;;4.95;;
64543;SDS011;50936;51.660;5.616;2023-03-20T14:22:45;9.68;;;4.60;;
64543;SDS011;50936;51.660;5.616;2023-03-20T14:25:16;19.13;;;5.75;;
64543;SDS011;50936;51.660;5.616;2023-03-20T14:27:56;11.93;;;4.32;;
64543;SDS011;50936;51.660;5.616;2023-03-20T14:38:56;16.77;;;5.10;;
64543;SDS011;50936;51.660;5.616;2023-03-20T14:42:00;19.15;;;4.53;;
64543;SDS011;50936;51.660;5.616;2023-03-20T14:50:17;15.15;;;5.25;;
64543;SDS011;50936;51.660;5.616;2023-03-20T14:59:04;19.60;;;5.95;;
64543;SDS011;50936;51.660;5.616;2023-03-20T15:01:33;17.50;;;5.63;;
64543;SDS011;50936;51.660;5.616;2023-03-20T15:07:21;11.65;;;4.72;;
64543;SDS011;50936;51.660;5.616;2023-03-20T15:09:53;13.88;;;4.82;;
64543;SDS011;50936;51.660;5.616;2023-03-20T15:17:27;14.52;;;5.88;;
64543;SDS011;50936;51.660;5.616;2023-03-20T15:25:27;11.05;;;3.92;;
64543;SDS011;50936;51.660;5.616;2023-03-20T15:27:59;20.40;;;5.40;;
64543;SDS011;50936;51.660;5.616;2023-03-20T15:30:32;16.73;;;5.40;;
64543;SDS011;50936;51.660;5.616;2023-03-20T15:33:03;15.10;;;5.93;;
64543;SDS011;50936;51.660;5.616;2023-03-20T15:35:31;16.85;;;5.53;;
64543;SDS011;50936;51.660;5.616;2023-03-20T15:38:03;12.48;;;4.82;;
64543;SDS011;50936;51.660;5.616;2023-03-20T15:40:33;11.30;;;3.92;;
64543;SDS011;50936;51.660;5.616;2023-03-20T15:43:25;12.85;;;4.85;;
64543;SDS011;50936;51.660;5.616;2023-03-20T15:45:55;18.98;;;5.07;;
64543;SDS011;50936;51.660;5.616;2023-03-20T15:48:46;11.25;;;5.22;;
64543;SDS011;50936;51.660;5.616;2023-03-20T15:51:16;16.92;;;5.05;;
64543;SDS011;50936;51.660;5.616;2023-03-20T15:53:46;12.30;;;4.43;;
64543;SDS011;50936;51.660;5.616;2023-03-20T15:56:16;15.35;;;4.72;;
64543;SDS011;50936;51.660;5.616;2023-03-20T15:58:47;11.30;;;4.60;;
64543;SDS011;50936;51.660;5.616;2023-03-20T16:01:21;10.70;;;4.07;;
64543;SDS011;50936;51.660;5.616;2023-03-20T16:03:57;18.23;;;3.80;;
64543;SDS011;50936;51.660;5.616;2023-03-20T16:06:25;13.60;;;4.63;;
64543;SDS011;50936;51.660;5.616;2023-03-20T16:09:04;15.95;;;4.65;;
64543;SDS011;50936;51.660;5.616;2023-03-20T16:11:37;12.57;;;3.83;;
64543;SDS011;50936;51.660;5.616;2023-03-20T16:14:41;11.35;;;3.80;;
64543;SDS011;50936;51.660;5.616;2023-03-20T16:17:01;14.27;;;3.78;;
64543;SDS011;50936;51.660;5.616;2023-03-20T16:19:30;18.35;;;4.70;;
64543;SDS011;50936;51.660;5.616;2023-03-20T16:21:59;12.13;;;3.85;;
64543;SDS011;50936;51.660;5.616;2023-03-20T16:24:37;18.95;;;5.07;;
64543;SDS011;50936;51.660;5.616;2023-03-20T16:27:06;10.55;;;3.80;;
64543;SDS011;50936;51.660;5.616;2023-03-20T16:29:35;8.20;;;3.25;;
64543;SDS011;50936;51.660;5.616;2023-03-20T16:32:19;10.85;;;3.35;;
64543;SDS011;50936;51.660;5.616;2023-03-20T16:35:00;11.50;;;3.80;;
64543;SDS011;50936;51.660;5.616;2023-03-20T16:37:38;11.98;;;3.70;;
64543;SDS011;50936;51.660;5.616;2023-03-20T16:40:21;13.82;;;3.85;;
64543;SDS011;50936;51.660;5.616;2023-03-20T16:43:17;13.68;;;4.13;;
64543;SDS011;50936;51.660;5.616;2023-03-20T16:45:53;10.68;;;3.45;;
64543;SDS011;50936;51.660;5.616;2023-03-20T16:51:16;15.77;;;3.80;;
64543;SDS011;50936;51.660;5.616;2023-03-20T16:53:59;14.40;;;3.95;;
64543;SDS011;50936;51.660;5.616;2023-03-20T16:59:09;9.75;;;3.88;;
64543;SDS011;50936;51.660;5.616;2023-03-20T17:01:44;10.48;;;3.92;;
64543;SDS011;50936;51.660;5.616;2023-03-20T17:04:18;15.68;;;4.22;;
64543;SDS011;50936;51.660;5.616;2023-03-20T17:09:55;12.50;;;4.45;;
64543;SDS011;50936;51.660;5.616;2023-03-20T17:12:47;11.93;;;4.07;;
64543;SDS011;50936;51.660;5.616;2023-03-20T17:15:18;10.30;;;3.80;;
64543;SDS011;50936;51.660;5.616;2023-03-20T17:17:48;10.93;;;4.38;;
64543;SDS011;50936;51.660;5.616;2023-03-20T17:20:20;9.68;;;3.50;;
64543;SDS011;50936;51.660;5.616;2023-03-20T17:22:53;9.55;;;4.22;;
64543;SDS011;50936;51.660;5.616;2023-03-20T17:25:20;11.18;;;3.55;;
64543;SDS011;50936;51.660;5.616;2023-03-20T17:27:47;19.20;;;4.55;;
64543;SDS011;50936;51.660;5.616;2023-03-20T17:30:18;13.35;;;4.53;;
64543;SDS011;50936;51.660;5.616;2023-03-20T17:32:48;18.08;;;4.20;;
64543;SDS011;50936;51.660;5.616;2023-03-20T17:35:16;9.77;;;4.60;;
64543;SDS011;50936;51.660;5.616;2023-03-20T17:37:43;19.52;;;5.07;;
64543;SDS011;50936;51.660;5.616;2023-03-20T17:40:15;11.90;;;5.10;;
64543;SDS011;50936;51.660;5.616;2023-03-20T17:42:46;14.07;;;5.28;;
64543;SDS011;50936;51.660;5.616;2023-03-20T17:45:14;12.30;;;4.82;;
64543;SDS011;50936;51.660;5.616;2023-03-20T17:47:46;14.35;;;5.25;;
64543;SDS011;50936;51.660;5.616;2023-03-20T17:50:23;12.30;;;4.60;;
64543;SDS011;50936;51.660;5.616;2023-03-20T17:55:20;12.65;;;4.95;;
64543;SDS011;50936;51.660;5.616;2023-03-20T17:57:47;15.07;;;5.40;;
64543;SDS011;50936;51.660;5.616;2023-03-20T18:00:21;17.08;;;6.00;;
64543;SDS011;50936;51.660;5.616;2023-03-20T18:02:50;17.45;;;5.68;;
64543;SDS011;50936;51.660;5.616;2023-03-20T18:05:17;17.63;;;5.80;;
64543;SDS011;50936;51.660;5.616;2023-03-20T18:07:44;18.75;;;6.53;;
64543;SDS011;50936;51.660;5.616;2023-03-20T18:10:18;15.45;;;6.50;;
64543;SDS011;50936;51.660;5.616;2023-03-20T18:12:51;12.82;;;5.20;;
64543;SDS011;50936;51.660;5.616;2023-03-20T18:15:18;20.10;;;6.60;;
64543;SDS011;50936;51.660;5.616;2023-03-20T18:17:45;15.10;;;7.40;;
64543;SDS011;50936;51.660;5.616;2023-03-20T18:20:21;16.35;;;6.15;;
64543;SDS011;50936;51.660;5.616;2023-03-20T18:22:53;18.60;;;6.85;;
64543;SDS011;50936;51.660;5.616;2023-03-20T18:25:20;18.42;;;7.43;;
64543;SDS011;50936;51.660;5.616;2023-03-20T18:27:48;19.15;;;7.45;;